sensor_id;sensor_type;location;lat;lon;timestamp;P1;durP1;ratioP1;P2;durP2;ratioP2
52866;SDS011;38739;53.324;6.862;2024-03-22T00:01:50;44.50;;;30.02;;
52866;SDS011;38739;53.324;6.862;2024-03-22T00:04:16;43.92;;;29.95;;
52866;SDS011;38739;53.324;6.862;2024-03-22T00:06:43;46.45;;;30.02;;
52866;SDS011;38739;53.324;6.862;2024-03-22T00:09:09;46.47;;;30.45;;
52866;SDS011;38739;53.324;6.862;2024-03-22T00:11:36;45.58;;;30.65;;
52866;SDS011;38739;53.324;6.862;2024-03-22T00:14:02;44.22;;;29.15;;
52866;SDS011;38739;53.324;6.862;2024-03-22T00:16:28;46.15;;;29.98;;
52866;SDS011;38739;53.324;6.862;2024-03-22T00:18:54;42.70;;;29.30;;
52866;SDS011;38739;53.324;6.862;2024-03-22T00:21:21;42.85;;;29.73;;
52866;SDS011;38739;53.324;6.862;2024-03-22T00:23:47;41.92;;;28.80;;
52866;SDS011;38739;53.324;6.862;2024-03-22T00:26:13;44.40;;;29.23;;
52866;SDS011;38739;53.324;6.862;2024-03-22T00:28:39;41.13;;;28.30;;
52866;SDS011;38739;53.324;6.862;2024-03-22T00:31:05;41.70;;;27.90;;
52866;SDS011;38739;53.324;6.862;2024-03-22T00:33:31;44.38;;;29.35;;
52866;SDS011;38739;53.324;6.862;2024-03-22T00:35:57;44.85;;;28.90;;
52866;SDS011;38739;53.324;6.862;2024-03-22T00:38:22;42.95;;;28.45;;
52866;SDS011;38739;53.324;6.862;2024-03-22T00:40:48;46.47;;;28.63;;
52866;SDS011;38739;53.324;6.862;2024-03-22T00:43:14;41.85;;;28.95;;
52866;SDS011;38739;53.324;6.862;2024-03-22T00:45:39;44.65;;;29.70;;
52866;SDS011;38739;53.324;6.862;2024-03-22T00:48:06;44.05;;;29.58;;
52866;SDS011;38739;53.324;6.862;2024-03-22T00:50:32;48.05;;;28.80;;
52866;SDS011;38739;53.324;6.862;2024-03-22T00:52:58;44.13;;;28.67;;
52866;SDS011;38739;53.324;6.862;2024-03-22T00:55:24;51.47;;;30.67;;
52866;SDS011;38739;53.324;6.862;2024-03-22T00:57:50;46.33;;;30.52;;
52866;SDS011;38739;53.324;6.862;2024-03-22T01:00:16;50.20;;;31.02;;
52866;SDS011;38739;53.324;6.862;2024-03-22T01:02:43;47.75;;;31.10;;
52866;SDS011;38739;53.324;6.862;2024-03-22T01:05:08;50.90;;;31.35;;
52866;SDS011;38739;53.324;6.862;2024-03-22T01:07:35;50.78;;;30.88;;
52866;SDS011;38739;53.324;6.862;2024-03-22T01:10:02;49.88;;;32.83;;
52866;SDS011;38739;53.324;6.862;2024-03-22T01:12:30;46.97;;;31.15;;
52866;SDS011;38739;53.324;6.862;2024-03-22T01:14:56;50.13;;;32.03;;
52866;SDS011;38739;53.324;6.862;2024-03-22T01:17:22;54.28;;;32.55;;
52866;SDS011;38739;53.324;6.862;2024-03-22T01:19:48;52.90;;;33.08;;
52866;SDS011;38739;53.324;6.862;2024-03-22T01:22:13;54.58;;;34.05;;
52866;SDS011;38739;53.324;6.862;2024-03-22T01:24:39;54.65;;;33.50;;
52866;SDS011;38739;53.324;6.862;2024-03-22T01:27:05;54.45;;;33.38;;
52866;SDS011;38739;53.324;6.862;2024-03-22T01:29:31;52.63;;;33.70;;
52866;SDS011;38739;53.324;6.862;2024-03-22T01:31:59;58.22;;;34.35;;
52866;SDS011;38739;53.324;6.862;2024-03-22T01:34:25;58.55;;;35.20;;
52866;SDS011;38739;53.324;6.862;2024-03-22T01:36:51;59.30;;;35.88;;
52866;SDS011;38739;53.324;6.862;2024-03-22T01:39:18;57.60;;;35.13;;
52866;SDS011;38739;53.324;6.862;2024-03-22T01:41:46;55.92;;;35.40;;
52866;SDS011;38739;53.324;6.862;2024-03-22T01:44:12;59.35;;;35.85;;
52866;SDS011;38739;53.324;6.862;2024-03-22T01:46:39;61.40;;;35.80;;
52866;SDS011;38739;53.324;6.862;2024-03-22T01:49:05;59.95;;;35.85;;
52866;SDS011;38739;53.324;6.862;2024-03-22T01:51:31;56.63;;;35.17;;
52866;SDS011;38739;53.324;6.862;2024-03-22T01:53:57;62.53;;;36.63;;
52866;SDS011;38739;53.324;6.862;2024-03-22T01:56:26;64.18;;;36.97;;
52866;SDS011;38739;53.324;6.862;2024-03-22T01:58:52;61.10;;;36.60;;
52866;SDS011;38739;53.324;6.862;2024-03-22T02:01:18;65.55;;;37.50;;
52866;SDS011;38739;53.324;6.862;2024-03-22T02:03:43;61.90;;;37.17;;
52866;SDS011;38739;53.324;6.862;2024-03-22T02:06:09;61.80;;;37.38;;
52866;SDS011;38739;53.324;6.862;2024-03-22T02:08:35;63.75;;;37.70;;
52866;SDS011;38739;53.324;6.862;2024-03-22T02:11:01;65.28;;;37.05;;
52866;SDS011;38739;53.324;6.862;2024-03-22T02:13:27;65.68;;;37.70;;
52866;SDS011;38739;53.324;6.862;2024-03-22T02:15:52;70.93;;;38.70;;
52866;SDS011;38739;53.324;6.862;2024-03-22T02:18:18;66.05;;;38.22;;
52866;SDS011;38739;53.324;6.862;2024-03-22T02:20:43;73.30;;;39.95;;
52866;SDS011;38739;53.324;6.862;2024-03-22T02:23:09;63.97;;;38.50;;
52866;SDS011;38739;53.324;6.862;2024-03-22T02:25:35;66.75;;;39.78;;
52866;SDS011;38739;53.324;6.862;2024-03-22T02:28:00;68.28;;;38.88;;
52866;SDS011;38739;53.324;6.862;2024-03-22T02:30:26;68.55;;;39.88;;
52866;SDS011;38739;53.324;6.862;2024-03-22T02:32:52;72.10;;;39.65;;
52866;SDS011;38739;53.324;6.862;2024-03-22T02:35:17;72.90;;;40.38;;
52866;SDS011;38739;53.324;6.862;2024-03-22T02:37:43;70.32;;;41.50;;
52866;SDS011;38739;53.324;6.862;2024-03-22T02:40:09;69.35;;;41.45;;
52866;SDS011;38739;53.324;6.862;2024-03-22T02:42:36;70.65;;;41.20;;
52866;SDS011;38739;53.324;6.862;2024-03-22T02:45:02;71.13;;;39.45;;
52866;SDS011;38739;53.324;6.862;2024-03-22T02:47:28;71.03;;;40.53;;
52866;SDS011;38739;53.324;6.862;2024-03-22T02:49:53;74.07;;;42.00;;
52866;SDS011;38739;53.324;6.862;2024-03-22T02:52:19;72.97;;;41.78;;
52866;SDS011;38739;53.324;6.862;2024-03-22T02:54:45;73.60;;;41.63;;
52866;SDS011;38739;53.324;6.862;2024-03-22T02:57:11;73.88;;;41.85;;
52866;SDS011;38739;53.324;6.862;2024-03-22T02:59:36;78.13;;;42.25;;
52866;SDS011;38739;53.324;6.862;2024-03-22T03:02:02;75.00;;;42.33;;
52866;SDS011;38739;53.324;6.862;2024-03-22T03:04:28;75.28;;;42.13;;
52866;SDS011;38739;53.324;6.862;2024-03-22T03:06:53;75.93;;;42.33;;
52866;SDS011;38739;53.324;6.862;2024-03-22T03:09:19;74.30;;;41.72;;
52866;SDS011;38739;53.324;6.862;2024-03-22T03:11:45;78.80;;;42.85;;
52866;SDS011;38739;53.324;6.862;2024-03-22T03:14:11;78.75;;;44.00;;
52866;SDS011;38739;53.324;6.862;2024-03-22T03:16:36;75.75;;;42.42;;
52866;SDS011;38739;53.324;6.862;2024-03-22T03:19:02;81.45;;;44.42;;
52866;SDS011;38739;53.324;6.862;2024-03-22T03:21:28;75.95;;;42.97;;
52866;SDS011;38739;53.324;6.862;2024-03-22T03:23:53;76.70;;;43.47;;
52866;SDS011;38739;53.324;6.862;2024-03-22T03:26:19;79.15;;;43.90;;
52866;SDS011;38739;53.324;6.862;2024-03-22T03:28:45;82.22;;;43.50;;
52866;SDS011;38739;53.324;6.862;2024-03-22T03:31:10;76.13;;;42.92;;
52866;SDS011;38739;53.324;6.862;2024-03-22T03:33:36;81.13;;;42.67;;
52866;SDS011;38739;53.324;6.862;2024-03-22T03:36:02;85.13;;;44.13;;
52866;SDS011;38739;53.324;6.862;2024-03-22T03:38:27;81.90;;;44.47;;
52866;SDS011;38739;53.324;6.862;2024-03-22T03:40:53;82.03;;;44.25;;
52866;SDS011;38739;53.324;6.862;2024-03-22T03:43:19;81.85;;;44.50;;
52866;SDS011;38739;53.324;6.862;2024-03-22T03:45:44;82.53;;;45.65;;
52866;SDS011;38739;53.324;6.862;2024-03-22T03:48:10;85.65;;;44.75;;
52866;SDS011;38739;53.324;6.862;2024-03-22T03:50:36;85.80;;;44.90;;
52866;SDS011;38739;53.324;6.862;2024-03-22T03:53:01;80.60;;;44.60;;
52866;SDS011;38739;53.324;6.862;2024-03-22T03:55:27;88.00;;;45.60;;
52866;SDS011;38739;53.324;6.862;2024-03-22T03:57:53;86.90;;;45.33;;
52866;SDS011;38739;53.324;6.862;2024-03-22T04:00:19;86.35;;;46.65;;
52866;SDS011;38739;53.324;6.862;2024-03-22T04:02:45;84.18;;;45.05;;
52866;SDS011;38739;53.324;6.862;2024-03-22T04:05:11;87.47;;;46.85;;
52866;SDS011;38739;53.324;6.862;2024-03-22T04:07:37;90.53;;;46.35;;
52866;SDS011;38739;53.324;6.862;2024-03-22T04:10:04;94.45;;;46.38;;
52866;SDS011;38739;53.324;6.862;2024-03-22T04:12:31;87.65;;;46.13;;
52866;SDS011;38739;53.324;6.862;2024-03-22T04:14:56;96.70;;;46.97;;
52866;SDS011;38739;53.324;6.862;2024-03-22T04:17:22;90.13;;;45.75;;
52866;SDS011;38739;53.324;6.862;2024-03-22T04:19:49;88.95;;;45.10;;
52866;SDS011;38739;53.324;6.862;2024-03-22T04:22:15;88.05;;;45.28;;
52866;SDS011;38739;53.324;6.862;2024-03-22T04:24:40;86.72;;;44.30;;
52866;SDS011;38739;53.324;6.862;2024-03-22T04:27:06;89.75;;;45.63;;
52866;SDS011;38739;53.324;6.862;2024-03-22T04:29:32;83.15;;;43.33;;
52866;SDS011;38739;53.324;6.862;2024-03-22T04:31:58;84.15;;;43.88;;
52866;SDS011;38739;53.324;6.862;2024-03-22T04:34:24;91.45;;;44.03;;
52866;SDS011;38739;53.324;6.862;2024-03-22T04:36:50;85.82;;;42.63;;
52866;SDS011;38739;53.324;6.862;2024-03-22T04:39:17;80.88;;;42.65;;
52866;SDS011;38739;53.324;6.862;2024-03-22T04:41:44;87.57;;;41.70;;
52866;SDS011;38739;53.324;6.862;2024-03-22T04:44:10;83.55;;;42.97;;
52866;SDS011;38739;53.324;6.862;2024-03-22T04:46:35;84.32;;;41.42;;
52866;SDS011;38739;53.324;6.862;2024-03-22T04:49:01;82.68;;;41.95;;
52866;SDS011;38739;53.324;6.862;2024-03-22T04:51:27;86.30;;;42.30;;
52866;SDS011;38739;53.324;6.862;2024-03-22T04:53:52;88.65;;;43.70;;
52866;SDS011;38739;53.324;6.862;2024-03-22T04:56:18;84.07;;;41.25;;
52866;SDS011;38739;53.324;6.862;2024-03-22T04:58:44;83.80;;;42.08;;
52866;SDS011;38739;53.324;6.862;2024-03-22T05:01:09;87.35;;;42.97;;
52866;SDS011;38739;53.324;6.862;2024-03-22T05:03:38;85.97;;;42.38;;
52866;SDS011;38739;53.324;6.862;2024-03-22T05:06:04;85.25;;;42.55;;
52866;SDS011;38739;53.324;6.862;2024-03-22T05:08:31;87.03;;;41.70;;
52866;SDS011;38739;53.324;6.862;2024-03-22T05:10:57;85.72;;;40.95;;
52866;SDS011;38739;53.324;6.862;2024-03-22T05:13:23;82.68;;;41.40;;
52866;SDS011;38739;53.324;6.862;2024-03-22T05:15:48;78.70;;;41.55;;
52866;SDS011;38739;53.324;6.862;2024-03-22T05:18:14;81.07;;;40.95;;
52866;SDS011;38739;53.324;6.862;2024-03-22T05:20:40;87.43;;;41.88;;
52866;SDS011;38739;53.324;6.862;2024-03-22T05:23:05;80.60;;;41.13;;
52866;SDS011;38739;53.324;6.862;2024-03-22T05:25:31;73.00;;;39.10;;
52866;SDS011;38739;53.324;6.862;2024-03-22T05:27:57;81.53;;;41.65;;
52866;SDS011;38739;53.324;6.862;2024-03-22T05:30:22;79.18;;;39.33;;
52866;SDS011;38739;53.324;6.862;2024-03-22T05:32:48;80.68;;;39.67;;
52866;SDS011;38739;53.324;6.862;2024-03-22T05:35:15;79.63;;;40.13;;
52866;SDS011;38739;53.324;6.862;2024-03-22T05:37:41;79.75;;;39.60;;
52866;SDS011;38739;53.324;6.862;2024-03-22T05:40:07;71.22;;;38.08;;
52866;SDS011;38739;53.324;6.862;2024-03-22T05:42:33;74.97;;;38.22;;
52866;SDS011;38739;53.324;6.862;2024-03-22T05:44:59;76.65;;;38.13;;
52866;SDS011;38739;53.324;6.862;2024-03-22T05:47:25;76.55;;;38.13;;
52866;SDS011;38739;53.324;6.862;2024-03-22T05:49:51;76.25;;;38.22;;
52866;SDS011;38739;53.324;6.862;2024-03-22T05:52:17;74.05;;;38.00;;
52866;SDS011;38739;53.324;6.862;2024-03-22T05:54:43;78.95;;;38.55;;
52866;SDS011;38739;53.324;6.862;2024-03-22T05:57:09;78.22;;;38.75;;
52866;SDS011;38739;53.324;6.862;2024-03-22T05:59:35;76.82;;;37.72;;
52866;SDS011;38739;53.324;6.862;2024-03-22T06:02:01;79.88;;;38.65;;
52866;SDS011;38739;53.324;6.862;2024-03-22T06:04:28;76.82;;;37.50;;
52866;SDS011;38739;53.324;6.862;2024-03-22T06:06:54;78.28;;;38.90;;
52866;SDS011;38739;53.324;6.862;2024-03-22T06:09:20;80.45;;;37.83;;
52866;SDS011;38739;53.324;6.862;2024-03-22T06:11:50;70.60;;;36.47;;
52866;SDS011;38739;53.324;6.862;2024-03-22T06:14:16;78.93;;;37.63;;
52866;SDS011;38739;53.324;6.862;2024-03-22T06:16:42;66.68;;;34.63;;
52866;SDS011;38739;53.324;6.862;2024-03-22T06:19:07;73.25;;;35.08;;
52866;SDS011;38739;53.324;6.862;2024-03-22T06:21:33;72.45;;;35.17;;
52866;SDS011;38739;53.324;6.862;2024-03-22T06:23:59;73.65;;;35.13;;
52866;SDS011;38739;53.324;6.862;2024-03-22T06:26:24;74.28;;;34.40;;
52866;SDS011;38739;53.324;6.862;2024-03-22T06:28:50;78.43;;;35.05;;
52866;SDS011;38739;53.324;6.862;2024-03-22T06:31:16;71.60;;;36.35;;
52866;SDS011;38739;53.324;6.862;2024-03-22T06:33:42;71.93;;;35.17;;
52866;SDS011;38739;53.324;6.862;2024-03-22T06:36:08;71.90;;;34.63;;
52866;SDS011;38739;53.324;6.862;2024-03-22T06:38:33;69.30;;;34.08;;
52866;SDS011;38739;53.324;6.862;2024-03-22T06:40:59;64.57;;;32.58;;
52866;SDS011;38739;53.324;6.862;2024-03-22T06:43:25;63.10;;;31.38;;
52866;SDS011;38739;53.324;6.862;2024-03-22T06:45:51;61.58;;;30.55;;
52866;SDS011;38739;53.324;6.862;2024-03-22T06:48:16;60.53;;;29.50;;
52866;SDS011;38739;53.324;6.862;2024-03-22T06:50:42;52.83;;;27.02;;
52866;SDS011;38739;53.324;6.862;2024-03-22T06:53:08;54.55;;;28.40;;
52866;SDS011;38739;53.324;6.862;2024-03-22T06:55:36;54.47;;;27.75;;
52866;SDS011;38739;53.324;6.862;2024-03-22T06:58:02;51.63;;;26.27;;
52866;SDS011;38739;53.324;6.862;2024-03-22T07:00:28;49.08;;;25.27;;
52866;SDS011;38739;53.324;6.862;2024-03-22T07:02:54;47.40;;;24.63;;
52866;SDS011;38739;53.324;6.862;2024-03-22T07:05:20;46.53;;;22.70;;
52866;SDS011;38739;53.324;6.862;2024-03-22T07:07:47;43.70;;;23.75;;
52866;SDS011;38739;53.324;6.862;2024-03-22T07:10:14;43.53;;;22.88;;
52866;SDS011;38739;53.324;6.862;2024-03-22T07:12:40;46.35;;;22.27;;
52866;SDS011;38739;53.324;6.862;2024-03-22T07:15:06;45.72;;;23.30;;
52866;SDS011;38739;53.324;6.862;2024-03-22T07:17:32;52.75;;;23.35;;
52866;SDS011;38739;53.324;6.862;2024-03-22T07:19:57;56.67;;;25.17;;
52866;SDS011;38739;53.324;6.862;2024-03-22T07:22:23;52.70;;;24.27;;
52866;SDS011;38739;53.324;6.862;2024-03-22T07:24:49;54.72;;;24.35;;
52866;SDS011;38739;53.324;6.862;2024-03-22T07:27:16;50.10;;;23.98;;
52866;SDS011;38739;53.324;6.862;2024-03-22T07:29:42;55.00;;;24.58;;
52866;SDS011;38739;53.324;6.862;2024-03-22T07:32:08;55.25;;;24.35;;
52866;SDS011;38739;53.324;6.862;2024-03-22T07:34:34;50.80;;;23.15;;
52866;SDS011;38739;53.324;6.862;2024-03-22T07:37:00;46.45;;;22.80;;
52866;SDS011;38739;53.324;6.862;2024-03-22T07:39:25;50.40;;;21.80;;
52866;SDS011;38739;53.324;6.862;2024-03-22T07:41:51;42.25;;;21.85;;
52866;SDS011;38739;53.324;6.862;2024-03-22T07:44:17;47.78;;;21.70;;
52866;SDS011;38739;53.324;6.862;2024-03-22T07:46:44;43.53;;;21.17;;
52866;SDS011;38739;53.324;6.862;2024-03-22T07:49:11;47.60;;;22.95;;
52866;SDS011;38739;53.324;6.862;2024-03-22T07:51:37;46.13;;;21.83;;
52866;SDS011;38739;53.324;6.862;2024-03-22T07:54:03;47.58;;;22.42;;
52866;SDS011;38739;53.324;6.862;2024-03-22T07:56:28;45.53;;;20.80;;
52866;SDS011;38739;53.324;6.862;2024-03-22T07:58:54;44.88;;;19.60;;
52866;SDS011;38739;53.324;6.862;2024-03-22T08:01:23;46.65;;;20.00;;
52866;SDS011;38739;53.324;6.862;2024-03-22T08:03:49;39.50;;;19.85;;
52866;SDS011;38739;53.324;6.862;2024-03-22T08:06:16;39.88;;;20.40;;
52866;SDS011;38739;53.324;6.862;2024-03-22T08:08:42;41.63;;;20.23;;
52866;SDS011;38739;53.324;6.862;2024-03-22T08:11:07;44.53;;;20.23;;
52866;SDS011;38739;53.324;6.862;2024-03-22T08:13:34;38.20;;;18.08;;
52866;SDS011;38739;53.324;6.862;2024-03-22T08:16:00;35.45;;;17.40;;
52866;SDS011;38739;53.324;6.862;2024-03-22T08:18:26;36.50;;;17.42;;
52866;SDS011;38739;53.324;6.862;2024-03-22T08:20:51;33.08;;;16.83;;
52866;SDS011;38739;53.324;6.862;2024-03-22T08:23:17;33.22;;;16.50;;
52866;SDS011;38739;53.324;6.862;2024-03-22T08:25:45;32.95;;;16.20;;
52866;SDS011;38739;53.324;6.862;2024-03-22T08:28:11;30.10;;;15.45;;
52866;SDS011;38739;53.324;6.862;2024-03-22T08:30:39;26.35;;;14.88;;
52866;SDS011;38739;53.324;6.862;2024-03-22T08:33:05;27.40;;;14.48;;
52866;SDS011;38739;53.324;6.862;2024-03-22T08:35:31;32.40;;;15.57;;
52866;SDS011;38739;53.324;6.862;2024-03-22T08:37:56;26.45;;;14.90;;
52866;SDS011;38739;53.324;6.862;2024-03-22T08:40:23;26.45;;;15.00;;
52866;SDS011;38739;53.324;6.862;2024-03-22T08:42:49;24.52;;;14.07;;
52866;SDS011;38739;53.324;6.862;2024-03-22T08:45:15;26.77;;;14.50;;
52866;SDS011;38739;53.324;6.862;2024-03-22T08:47:41;28.38;;;14.77;;
52866;SDS011;38739;53.324;6.862;2024-03-22T08:50:08;25.42;;;13.88;;
52866;SDS011;38739;53.324;6.862;2024-03-22T08:52:34;25.40;;;13.98;;
52866;SDS011;38739;53.324;6.862;2024-03-22T08:55:01;20.65;;;12.35;;
52866;SDS011;38739;53.324;6.862;2024-03-22T08:57:26;25.25;;;12.70;;
52866;SDS011;38739;53.324;6.862;2024-03-22T08:59:53;22.80;;;12.65;;
52866;SDS011;38739;53.324;6.862;2024-03-22T09:02:18;21.00;;;12.48;;
52866;SDS011;38739;53.324;6.862;2024-03-22T09:04:44;18.52;;;11.43;;
52866;SDS011;38739;53.324;6.862;2024-03-22T09:07:10;19.73;;;11.23;;
52866;SDS011;38739;53.324;6.862;2024-03-22T09:09:36;15.32;;;9.98;;
52866;SDS011;38739;53.324;6.862;2024-03-22T09:12:01;14.95;;;9.93;;
52866;SDS011;38739;53.324;6.862;2024-03-22T09:14:27;17.65;;;9.32;;
52866;SDS011;38739;53.324;6.862;2024-03-22T09:16:53;15.05;;;8.57;;
52866;SDS011;38739;53.324;6.862;2024-03-22T09:19:19;15.15;;;8.70;;
52866;SDS011;38739;53.324;6.862;2024-03-22T09:21:44;13.93;;;9.00;;
52866;SDS011;38739;53.324;6.862;2024-03-22T09:24:10;11.65;;;7.85;;
52866;SDS011;38739;53.324;6.862;2024-03-22T09:26:35;11.57;;;7.75;;
52866;SDS011;38739;53.324;6.862;2024-03-22T09:29:01;12.48;;;7.88;;
52866;SDS011;38739;53.324;6.862;2024-03-22T09:31:29;12.55;;;8.25;;
52866;SDS011;38739;53.324;6.862;2024-03-22T09:33:55;11.48;;;7.70;;
52866;SDS011;38739;53.324;6.862;2024-03-22T09:36:21;10.02;;;7.38;;
52866;SDS011;38739;53.324;6.862;2024-03-22T09:38:47;12.32;;;7.85;;
52866;SDS011;38739;53.324;6.862;2024-03-22T09:41:13;12.60;;;7.13;;
52866;SDS011;38739;53.324;6.862;2024-03-22T09:43:40;8.48;;;6.50;;
52866;SDS011;38739;53.324;6.862;2024-03-22T09:46:09;13.18;;;6.82;;
52866;SDS011;38739;53.324;6.862;2024-03-22T09:48:36;9.25;;;6.40;;
52866;SDS011;38739;53.324;6.862;2024-03-22T09:51:03;8.95;;;6.03;;
52866;SDS011;38739;53.324;6.862;2024-03-22T09:53:28;8.23;;;5.63;;
52866;SDS011;38739;53.324;6.862;2024-03-22T09:55:56;7.57;;;5.78;;
52866;SDS011;38739;53.324;6.862;2024-03-22T09:58:26;9.43;;;6.03;;
52866;SDS011;38739;53.324;6.862;2024-03-22T10:00:52;7.40;;;5.15;;
52866;SDS011;38739;53.324;6.862;2024-03-22T10:03:20;6.63;;;5.00;;
52866;SDS011;38739;53.324;6.862;2024-03-22T10:05:46;8.30;;;5.55;;
52866;SDS011;38739;53.324;6.862;2024-03-22T10:08:12;7.25;;;5.60;;
52866;SDS011;38739;53.324;6.862;2024-03-22T10:10:38;8.32;;;5.15;;
52866;SDS011;38739;53.324;6.862;2024-03-22T10:13:04;6.97;;;4.93;;
52866;SDS011;38739;53.324;6.862;2024-03-22T10:15:32;8.57;;;5.47;;
52866;SDS011;38739;53.324;6.862;2024-03-22T10:17:58;7.13;;;4.90;;
52866;SDS011;38739;53.324;6.862;2024-03-22T10:20:23;7.07;;;4.97;;
52866;SDS011;38739;53.324;6.862;2024-03-22T10:23:00;6.22;;;4.10;;
52866;SDS011;38739;53.324;6.862;2024-03-22T10:25:26;6.53;;;4.63;;
52866;SDS011;38739;53.324;6.862;2024-03-22T10:27:53;5.68;;;4.35;;
52866;SDS011;38739;53.324;6.862;2024-03-22T10:30:20;6.13;;;4.47;;
52866;SDS011;38739;53.324;6.862;2024-03-22T10:32:47;5.57;;;4.15;;
52866;SDS011;38739;53.324;6.862;2024-03-22T10:35:13;6.22;;;4.00;;
52866;SDS011;38739;53.324;6.862;2024-03-22T10:37:40;5.28;;;3.85;;
52866;SDS011;38739;53.324;6.862;2024-03-22T10:40:06;6.38;;;4.25;;
52866;SDS011;38739;53.324;6.862;2024-03-22T10:42:36;5.97;;;4.20;;
52866;SDS011;38739;53.324;6.862;2024-03-22T10:45:06;4.82;;;3.75;;
52866;SDS011;38739;53.324;6.862;2024-03-22T10:47:36;4.93;;;3.50;;
52866;SDS011;38739;53.324;6.862;2024-03-22T10:50:06;4.65;;;3.25;;
52866;SDS011;38739;53.324;6.862;2024-03-22T10:55:13;4.88;;;2.85;;
52866;SDS011;38739;53.324;6.862;2024-03-22T10:57:45;3.50;;;2.60;;
52866;SDS011;38739;53.324;6.862;2024-03-22T11:00:11;4.47;;;2.83;;
52866;SDS011;38739;53.324;6.862;2024-03-22T11:02:38;4.18;;;3.10;;
52866;SDS011;38739;53.324;6.862;2024-03-22T11:05:15;4.55;;;2.80;;
52866;SDS011;38739;53.324;6.862;2024-03-22T11:07:46;2.97;;;2.50;;
52866;SDS011;38739;53.324;6.862;2024-03-22T11:10:12;4.70;;;2.83;;
52866;SDS011;38739;53.324;6.862;2024-03-22T11:12:38;4.25;;;2.60;;
52866;SDS011;38739;53.324;6.862;2024-03-22T11:15:05;4.43;;;2.50;;
52866;SDS011;38739;53.324;6.862;2024-03-22T11:17:31;4.35;;;2.53;;
52866;SDS011;38739;53.324;6.862;2024-03-22T11:19:56;6.18;;;2.67;;
52866;SDS011;38739;53.324;6.862;2024-03-22T11:22:22;3.63;;;2.80;;
52866;SDS011;38739;53.324;6.862;2024-03-22T11:24:50;6.20;;;2.92;;
52866;SDS011;38739;53.324;6.862;2024-03-22T11:27:15;4.80;;;3.20;;
52866;SDS011;38739;53.324;6.862;2024-03-22T11:29:41;7.15;;;3.80;;
52866;SDS011;38739;53.324;6.862;2024-03-22T11:32:09;5.10;;;3.20;;
52866;SDS011;38739;53.324;6.862;2024-03-22T11:34:38;8.63;;;3.70;;
52866;SDS011;38739;53.324;6.862;2024-03-22T11:37:05;8.38;;;3.80;;
52866;SDS011;38739;53.324;6.862;2024-03-22T11:39:37;7.80;;;3.65;;
52866;SDS011;38739;53.324;6.862;2024-03-22T11:42:06;8.63;;;4.00;;
52866;SDS011;38739;53.324;6.862;2024-03-22T11:44:34;8.88;;;3.63;;
52866;SDS011;38739;53.324;6.862;2024-03-22T11:47:02;9.77;;;4.03;;
52866;SDS011;38739;53.324;6.862;2024-03-22T11:49:29;12.02;;;4.30;;
52866;SDS011;38739;53.324;6.862;2024-03-22T11:51:58;15.52;;;4.25;;
52866;SDS011;38739;53.324;6.862;2024-03-22T11:54:23;14.20;;;4.72;;
52866;SDS011;38739;53.324;6.862;2024-03-22T11:56:49;15.82;;;4.72;;
52866;SDS011;38739;53.324;6.862;2024-03-22T11:59:15;11.75;;;4.07;;
52866;SDS011;38739;53.324;6.862;2024-03-22T12:01:45;15.77;;;4.53;;
52866;SDS011;38739;53.324;6.862;2024-03-22T12:04:11;15.23;;;4.68;;
52866;SDS011;38739;53.324;6.862;2024-03-22T12:06:43;14.15;;;4.40;;
52866;SDS011;38739;53.324;6.862;2024-03-22T12:09:10;13.70;;;4.40;;
52866;SDS011;38739;53.324;6.862;2024-03-22T12:11:40;15.05;;;4.22;;
52866;SDS011;38739;53.324;6.862;2024-03-22T12:14:05;15.30;;;3.97;;
52866;SDS011;38739;53.324;6.862;2024-03-22T12:16:31;19.02;;;4.68;;
52866;SDS011;38739;53.324;6.862;2024-03-22T12:18:57;19.50;;;4.80;;
52866;SDS011;38739;53.324;6.862;2024-03-22T12:21:23;18.13;;;4.88;;
52866;SDS011;38739;53.324;6.862;2024-03-22T12:23:49;17.48;;;4.55;;
52866;SDS011;38739;53.324;6.862;2024-03-22T12:26:15;18.63;;;4.28;;
52866;SDS011;38739;53.324;6.862;2024-03-22T12:28:41;16.60;;;4.00;;
52866;SDS011;38739;53.324;6.862;2024-03-22T12:31:07;15.68;;;4.18;;
52866;SDS011;38739;53.324;6.862;2024-03-22T12:33:33;17.40;;;4.15;;
52866;SDS011;38739;53.324;6.862;2024-03-22T12:35:59;17.95;;;4.10;;
52866;SDS011;38739;53.324;6.862;2024-03-22T12:38:25;15.93;;;4.15;;
52866;SDS011;38739;53.324;6.862;2024-03-22T12:40:51;13.38;;;4.07;;
52866;SDS011;38739;53.324;6.862;2024-03-22T12:43:17;17.63;;;4.70;;
52866;SDS011;38739;53.324;6.862;2024-03-22T12:45:42;22.25;;;4.95;;
52866;SDS011;38739;53.324;6.862;2024-03-22T12:48:08;19.40;;;4.20;;
52866;SDS011;38739;53.324;6.862;2024-03-22T12:50:34;17.63;;;4.03;;
52866;SDS011;38739;53.324;6.862;2024-03-22T12:53:00;25.05;;;4.65;;
52866;SDS011;38739;53.324;6.862;2024-03-22T12:55:26;21.02;;;4.43;;
52866;SDS011;38739;53.324;6.862;2024-03-22T12:57:53;18.42;;;4.55;;
52866;SDS011;38739;53.324;6.862;2024-03-22T13:00:19;23.75;;;4.55;;
52866;SDS011;38739;53.324;6.862;2024-03-22T13:02:45;26.92;;;4.80;;
52866;SDS011;38739;53.324;6.862;2024-03-22T13:05:17;21.27;;;4.32;;
52866;SDS011;38739;53.324;6.862;2024-03-22T13:07:42;21.17;;;3.95;;
52866;SDS011;38739;53.324;6.862;2024-03-22T13:10:08;22.10;;;4.35;;
52866;SDS011;38739;53.324;6.862;2024-03-22T13:12:35;16.30;;;4.53;;
52866;SDS011;38739;53.324;6.862;2024-03-22T13:15:01;18.25;;;4.15;;
52866;SDS011;38739;53.324;6.862;2024-03-22T13:17:27;14.13;;;3.47;;
52866;SDS011;38739;53.324;6.862;2024-03-22T13:19:53;15.27;;;3.92;;
52866;SDS011;38739;53.324;6.862;2024-03-22T13:22:19;14.00;;;4.10;;
52866;SDS011;38739;53.324;6.862;2024-03-22T13:24:45;13.10;;;4.30;;
52866;SDS011;38739;53.324;6.862;2024-03-22T13:27:11;10.93;;;4.25;;
52866;SDS011;38739;53.324;6.862;2024-03-22T13:29:38;11.60;;;5.25;;
52866;SDS011;38739;53.324;6.862;2024-03-22T13:32:05;12.63;;;5.47;;
52866;SDS011;38739;53.324;6.862;2024-03-22T13:34:33;10.40;;;4.45;;
52866;SDS011;38739;53.324;6.862;2024-03-22T13:36:59;12.98;;;4.75;;
52866;SDS011;38739;53.324;6.862;2024-03-22T13:39:25;12.88;;;4.82;;
52866;SDS011;38739;53.324;6.862;2024-03-22T13:41:51;16.45;;;5.75;;
52866;SDS011;38739;53.324;6.862;2024-03-22T13:44:16;19.65;;;5.60;;
52866;SDS011;38739;53.324;6.862;2024-03-22T13:46:42;16.17;;;5.60;;
52866;SDS011;38739;53.324;6.862;2024-03-22T13:49:12;16.38;;;6.00;;
52866;SDS011;38739;53.324;6.862;2024-03-22T13:51:42;17.08;;;5.60;;
52866;SDS011;38739;53.324;6.862;2024-03-22T13:54:09;16.55;;;5.63;;
52866;SDS011;38739;53.324;6.862;2024-03-22T13:56:35;17.77;;;5.95;;
52866;SDS011;38739;53.324;6.862;2024-03-22T13:59:03;20.52;;;5.60;;
52866;SDS011;38739;53.324;6.862;2024-03-22T14:01:30;14.85;;;5.20;;
52866;SDS011;38739;53.324;6.862;2024-03-22T14:03:57;15.88;;;5.57;;
52866;SDS011;38739;53.324;6.862;2024-03-22T14:06:23;18.02;;;5.80;;
52866;SDS011;38739;53.324;6.862;2024-03-22T14:08:48;18.38;;;5.70;;
52866;SDS011;38739;53.324;6.862;2024-03-22T14:11:14;15.30;;;5.40;;
52866;SDS011;38739;53.324;6.862;2024-03-22T14:13:40;16.45;;;4.95;;
52866;SDS011;38739;53.324;6.862;2024-03-22T14:16:05;17.50;;;5.55;;
52866;SDS011;38739;53.324;6.862;2024-03-22T14:18:33;18.85;;;6.18;;
52866;SDS011;38739;53.324;6.862;2024-03-22T14:21:00;17.95;;;5.28;;
52866;SDS011;38739;53.324;6.862;2024-03-22T14:23:27;21.63;;;5.15;;
52866;SDS011;38739;53.324;6.862;2024-03-22T14:25:54;20.65;;;4.50;;